createdAt,value
2019-06-07T00:02:45.467Z,7.60
2019-06-07T00:05:37.025Z,7.63
2019-06-07T00:08:29.467Z,7.27
2019-06-07T00:11:21.298Z,7.70
2019-06-07T00:14:16.078Z,7.50
2019-06-07T00:17:12.466Z,8.40
2019-06-07T00:20:02.482Z,7.07
2019-06-07T00:22:55.519Z,7.13
2019-06-07T00:25:46.894Z,6.97
2019-06-07T00:28:38.445Z,7.67
2019-06-07T00:31:29.885Z,6.73
2019-06-07T00:34:23.032Z,6.73
2019-06-07T00:37:14.262Z,7.03
2019-06-07T00:40:16.331Z,6.97
2019-06-07T00:43:01.643Z,6.87
2019-06-07T00:45:53.471Z,6.53
2019-06-07T00:48:45.150Z,6.80
2019-06-07T00:51:49.891Z,6.90
2019-06-07T00:54:30.140Z,6.10
2019-06-07T00:57:24.222Z,6.13
2019-06-07T01:00:18.324Z,5.83
2019-06-07T01:03:08.654Z,5.67
2019-06-07T01:06:00.526Z,5.73
2019-06-07T01:08:51.882Z,5.50
2019-06-07T01:11:43.406Z,5.40
2019-06-07T01:14:34.913Z,5.43
2019-06-07T01:17:41.424Z,5.53
2019-06-07T01:20:24.191Z,5.20
2019-06-07T01:23:57.919Z,5.70
2019-06-07T01:26:07.503Z,4.90
2019-06-07T01:28:58.996Z,5.60
2019-06-07T01:31:50.272Z,4.83
2019-06-07T01:34:41.609Z,5.33
2019-06-07T01:37:33.176Z,5.13
2019-06-07T01:40:30.377Z,4.87
2019-06-07T01:43:19.511Z,5.10
2019-06-07T01:46:11.034Z,5.10
2019-06-07T01:49:02.640Z,5.10
2019-06-07T01:51:54.082Z,5.57
2019-06-07T01:54:58.333Z,5.17
2019-06-07T01:57:48.158Z,5.00
2019-06-07T02:00:32.728Z,5.40
2019-06-07T02:03:26.914Z,5.80
2019-06-07T02:06:18.442Z,5.17
2019-06-07T02:09:09.935Z,5.60
2019-06-07T02:12:01.291Z,5.43
2019-06-07T02:14:52.889Z,5.17
2019-06-07T02:17:44.743Z,6.30
2019-06-07T02:20:36.952Z,5.77
2019-06-07T02:23:31.672Z,5.53
2019-06-07T02:26:22.890Z,5.53
2019-06-07T02:29:14.820Z,5.47
2019-06-07T02:32:06.206Z,6.03
2019-06-07T02:34:57.745Z,5.27
2019-06-07T02:37:48.979Z,5.43
2019-06-07T02:40:40.604Z,5.83
2019-06-07T02:43:35.136Z,5.23
2019-06-07T02:46:38.231Z,5.33
2019-06-07T02:49:20.572Z,5.53
2019-06-07T02:52:12.221Z,5.87
2019-06-07T02:55:04.574Z,5.00
2019-06-07T02:57:56.006Z,5.77
2019-06-07T03:01:09.324Z,5.77
2019-06-07T03:03:42.886Z,5.40
2019-06-07T03:06:39.547Z,5.57
2019-06-07T03:09:30.742Z,5.43
2019-06-07T03:12:22.414Z,5.73
2019-06-07T03:15:32.105Z,5.03
2019-06-07T03:18:17.429Z,6.03
2019-06-07T03:21:12.874Z,5.20
2019-06-07T03:24:04.245Z,5.60
2019-06-07T03:27:34.028Z,5.40
2019-06-07T03:29:49.450Z,5.77
2019-06-07T03:32:47.182Z,6.27
2019-06-07T03:35:35.301Z,6.47
2019-06-07T03:38:27.726Z,6.17
2019-06-07T03:41:19.684Z,6.17
2019-06-07T03:44:11.213Z,7.37
2019-06-07T03:47:03.126Z,6.23
2019-06-07T03:49:54.467Z,7.40
2019-06-07T03:52:46.631Z,6.33
2019-06-07T03:55:41.099Z,6.80
2019-06-07T03:58:37.114Z,7.07
2019-06-07T04:01:25.309Z,7.83
2019-06-07T04:04:17.112Z,7.47
2019-06-07T04:07:08.611Z,6.93
2019-06-07T04:10:00.762Z,6.97
2019-06-07T04:12:53.732Z,6.90
2019-06-07T04:15:45.333Z,6.80
2019-06-07T04:18:40.851Z,8.23
2019-06-07T04:21:31.413Z,7.13
2019-06-07T04:24:23.268Z,6.17
2019-06-07T04:27:14.898Z,5.73
2019-06-07T04:30:08.401Z,5.30
2019-06-07T04:33:00.291Z,6.10
2019-06-07T04:35:51.781Z,5.93
2019-06-07T04:38:44.728Z,6.47
2019-06-07T04:41:39.091Z,6.07
2019-06-07T04:44:34.934Z,5.37
2019-06-07T04:47:29.281Z,6.30
2019-06-07T04:50:20.848Z,6.33
2019-06-07T04:53:12.303Z,5.97
2019-06-07T04:56:04.064Z,5.90
2019-06-07T04:58:55.694Z,6.10
2019-06-07T05:01:47.516Z,6.20
2019-06-07T05:04:39.838Z,6.77
2019-06-07T05:07:32.992Z,6.10
2019-06-07T05:10:25.499Z,5.60
2019-06-07T05:13:16.791Z,5.37
2019-06-07T05:16:08.473Z,5.33
2019-06-07T05:19:00.034Z,5.90
2019-06-07T05:22:03.502Z,5.40
2019-06-07T05:24:44.508Z,4.77
2019-06-07T05:27:39.212Z,4.97
2019-06-07T05:31:02.076Z,4.70
2019-06-07T05:33:31.153Z,4.20
2019-06-07T05:36:22.634Z,4.97
2019-06-07T05:39:14.321Z,4.87
2019-06-07T05:42:05.720Z,4.57
2019-06-07T05:44:57.014Z,4.73
2019-06-07T05:47:50.919Z,4.93
2019-06-07T05:50:55.338Z,4.40
2019-06-07T05:53:34.716Z,4.00
2019-06-07T05:56:26.370Z,5.10
2019-06-07T05:59:18.529Z,4.77
2019-06-07T06:02:22.222Z,4.50
2019-06-07T06:05:04.561Z,4.53
2019-06-07T06:07:55.930Z,4.90
2019-06-07T06:10:48.871Z,4.60
2019-06-07T06:14:03.515Z,4.37
2019-06-07T06:16:34.598Z,5.17
2019-06-07T06:19:26.161Z,4.50
2019-06-07T06:22:17.658Z,4.80
2019-06-07T06:25:32.006Z,4.77
2019-06-07T06:28:10.969Z,4.83
2019-06-07T06:30:56.220Z,4.63
2019-06-07T06:33:49.922Z,4.27
2019-06-07T06:36:44.649Z,4.60
2019-06-07T06:39:34.272Z,4.33
2019-06-07T06:42:25.663Z,4.03
2019-06-07T06:45:19.242Z,4.10
2019-06-07T06:48:10.856Z,3.70
2019-06-07T06:51:03.492Z,3.67
2019-06-07T06:53:55.243Z,3.50
2019-06-07T06:56:47.556Z,3.97
2019-06-07T06:59:43.680Z,3.13
2019-06-07T07:03:26.951Z,3.60
2019-06-07T07:05:30.234Z,3.37
2019-06-07T07:08:21.571Z,2.80
2019-06-07T07:11:13.194Z,2.83
2019-06-07T07:14:04.888Z,2.77
2019-06-07T07:16:56.730Z,2.40
2019-06-07T07:19:50.376Z,2.60
2019-06-07T07:22:42.745Z,2.63
2019-06-07T07:25:34.541Z,2.37
2019-06-07T07:28:25.778Z,2.70
2019-06-07T07:31:17.263Z,2.60
2019-06-07T07:37:01.635Z,2.47
2019-06-07T07:40:01.226Z,2.30
2019-06-07T07:42:47.528Z,2.67
2019-06-07T07:45:39.391Z,2.30
2019-06-07T07:48:31.799Z,2.57
2019-06-07T07:51:23.490Z,2.60
2019-06-07T07:54:15.337Z,2.53
2019-06-07T07:57:06.972Z,2.50
2019-06-07T08:00:36.184Z,2.40
2019-06-07T08:02:53.775Z,2.30
2019-06-07T08:05:46.613Z,2.60
2019-06-07T08:08:38.152Z,2.43
2019-06-07T08:11:29.911Z,2.13
2019-06-07T08:14:21.855Z,2.70
2019-06-07T08:17:13.849Z,2.30
2019-06-07T08:20:06.054Z,2.70
2019-06-07T08:22:59.710Z,2.50
2019-06-07T08:25:52.703Z,2.90
2019-06-07T08:28:43.592Z,2.70
2019-06-07T08:31:35.285Z,2.80
2019-06-07T08:34:26.575Z,2.77
2019-06-07T08:37:18.718Z,2.70
2019-06-07T08:40:11.351Z,2.77
2019-06-07T08:43:18.134Z,2.97
2019-06-07T08:46:02.315Z,3.00
2019-06-07T08:48:51.711Z,3.33
2019-06-07T08:51:44.426Z,3.30
2019-06-07T08:54:35.733Z,3.30
2019-06-07T08:57:27.014Z,3.40
2019-06-07T09:00:43.234Z,3.07
2019-06-07T09:03:12.449Z,3.00
2019-06-07T09:06:16.463Z,3.20
2019-06-07T09:09:00.370Z,3.10
2019-06-07T09:11:49.814Z,3.40
2019-06-07T09:14:59.063Z,3.27
2019-06-07T09:17:35.538Z,3.47
2019-06-07T09:20:45.264Z,3.10
2019-06-07T09:23:36.582Z,3.00
2019-06-07T09:26:28.205Z,2.80
2019-06-07T09:29:20.047Z,2.60
2019-06-07T09:32:17.938Z,3.13
2019-06-07T09:35:11.336Z,2.80
2019-06-07T09:38:18.017Z,2.87
2019-06-07T09:40:51.112Z,2.90
2019-06-07T09:46:36.566Z,2.20
2019-06-07T09:49:32.466Z,2.90
2019-06-07T09:52:21.500Z,3.33
2019-06-07T09:55:23.775Z,3.27
2019-06-07T09:58:47.619Z,3.27
2019-06-07T10:01:03.948Z,2.70
2019-06-07T10:03:52.099Z,3.30
2019-06-07T10:06:43.427Z,3.20
2019-06-07T10:10:09.840Z,2.80
2019-06-07T10:12:28.214Z,2.90
2019-06-07T10:15:19.716Z,2.83
2019-06-07T10:18:11.249Z,2.77
2019-06-07T10:21:03.729Z,2.77
2019-06-07T10:23:55.225Z,2.60
2019-06-07T10:26:46.732Z,2.40
2019-06-07T10:29:38.072Z,2.00
2019-06-07T10:32:30.151Z,2.23
2019-06-07T10:35:21.657Z,1.93
2019-06-07T10:38:13.116Z,1.87
2019-06-07T10:41:04.800Z,2.23
2019-06-07T10:43:56.150Z,2.13
2019-06-07T10:46:47.715Z,2.10
2019-06-07T10:49:39.192Z,1.90
2019-06-07T10:52:30.482Z,2.17
2019-06-07T10:55:22.464Z,2.10
2019-06-07T10:58:13.779Z,2.10
2019-06-07T11:01:07.249Z,2.10
2019-06-07T11:03:59.225Z,1.77
2019-06-07T11:06:51.315Z,1.60
2019-06-07T11:09:43.450Z,1.73
2019-06-07T11:12:35.993Z,2.07
2019-06-07T11:15:27.515Z,2.00
2019-06-07T11:18:18.991Z,2.10
2019-06-07T11:21:10.248Z,2.33
2019-06-07T11:24:01.813Z,2.27
2019-06-07T11:26:53.166Z,2.10
2019-06-07T11:29:44.653Z,2.20
2019-06-07T11:32:36.132Z,2.10
2019-06-07T11:35:27.516Z,2.10
2019-06-07T11:38:19.145Z,2.10
2019-06-07T11:41:11.581Z,2.23
2019-06-07T11:44:03.857Z,2.10
2019-06-07T11:46:55.229Z,2.13
2019-06-07T11:49:46.545Z,2.00
2019-06-07T11:52:39.914Z,2.40
2019-06-07T11:55:31.452Z,2.40
2019-06-07T11:58:22.902Z,2.73
2019-06-07T12:01:17.164Z,3.03
2019-06-07T12:04:09.490Z,2.70
2019-06-07T12:07:01.061Z,3.00
2019-06-07T12:09:56.308Z,2.87
2019-06-07T12:12:45.484Z,2.70
2019-06-07T12:15:37.639Z,2.93
2019-06-07T12:18:29.292Z,3.53
2019-06-07T12:21:20.895Z,3.30
2019-06-07T12:24:12.250Z,3.30
2019-06-07T12:27:03.794Z,3.43
2019-06-07T12:29:55.180Z,2.87
2019-06-07T12:32:46.529Z,3.67
2019-06-07T12:35:38.135Z,3.30
2019-06-07T12:38:29.410Z,3.23
2019-06-07T12:41:20.829Z,3.03
2019-06-07T12:44:12.798Z,3.10
2019-06-07T12:47:04.303Z,3.30
2019-06-07T12:49:55.768Z,3.43
2019-06-07T12:52:47.448Z,3.40
2019-06-07T12:55:38.742Z,3.07
2019-06-07T12:58:35.321Z,3.57
2019-06-07T13:01:24.760Z,3.00
2019-06-07T13:04:16.420Z,3.10
2019-06-07T13:07:07.759Z,2.90
2019-06-07T13:09:59.149Z,2.83
2019-06-07T13:12:50.505Z,2.37
2019-06-07T13:15:41.970Z,3.60
2019-06-07T13:18:33.972Z,2.97
2019-06-07T13:21:25.654Z,3.00
2019-06-07T13:24:18.753Z,2.70
2019-06-07T13:27:10.014Z,2.70
2019-06-07T13:30:09.162Z,2.50
2019-06-07T13:32:54.228Z,2.93
2019-06-07T13:35:46.110Z,2.60
2019-06-07T13:38:37.728Z,2.30
2019-06-07T13:41:40.494Z,2.40
2019-06-07T13:44:22.941Z,2.37
2019-06-07T13:47:14.674Z,2.20
2019-06-07T13:50:07.077Z,2.20
2019-06-07T13:52:58.600Z,1.93
2019-06-07T13:55:49.880Z,2.10
2019-06-07T13:58:41.225Z,1.97
2019-06-07T14:01:32.516Z,1.80
2019-06-07T14:04:24.888Z,1.40
2019-06-07T14:07:16.365Z,1.77
2019-06-07T14:10:11.434Z,1.50
2019-06-07T14:13:01.116Z,1.30
2019-06-07T14:15:52.740Z,1.20
2019-06-07T14:18:44.267Z,1.50
2019-06-07T14:21:35.861Z,1.77
2019-06-07T14:24:27.238Z,1.50
2019-06-07T14:27:18.911Z,1.37
2019-06-07T14:30:10.715Z,1.23
2019-06-07T14:33:02.481Z,1.70
2019-06-07T14:35:55.109Z,1.40
2019-06-07T14:38:46.404Z,1.40
2019-06-07T14:41:37.698Z,1.30
2019-06-07T14:44:29.870Z,1.20
2019-06-07T14:47:21.135Z,1.17
2019-06-07T14:50:15.156Z,1.43
2019-06-07T14:53:06.507Z,1.10
2019-06-07T14:55:57.858Z,1.20
2019-06-07T14:58:49.431Z,1.20
2019-06-07T15:01:41.022Z,1.27
2019-06-07T15:04:33.118Z,0.90
2019-06-07T15:07:26.786Z,1.50
2019-06-07T15:10:18.603Z,1.20
2019-06-07T15:13:10.199Z,1.20
2019-06-07T15:16:01.961Z,1.10
2019-06-07T15:18:54.768Z,1.40
2019-06-07T15:21:46.213Z,1.90
2019-06-07T15:24:40.521Z,1.50
2019-06-07T15:27:32.968Z,1.50
2019-06-07T15:30:24.774Z,1.23
2019-06-07T15:33:16.340Z,2.10
2019-06-07T15:36:07.742Z,1.00
2019-06-07T15:38:59.061Z,1.20
2019-06-07T15:41:50.342Z,1.10
2019-06-07T15:44:41.783Z,0.93
2019-06-07T15:47:33.811Z,1.50
2019-06-07T15:50:28.644Z,1.40
2019-06-07T15:53:18.750Z,1.20
2019-06-07T15:56:10.138Z,1.00
2019-06-07T15:59:01.770Z,1.37
2019-06-07T16:01:53.926Z,1.10
2019-06-07T16:04:45.620Z,1.00
2019-06-07T16:07:38.350Z,1.00
2019-06-07T16:10:30.444Z,0.80
2019-06-07T16:13:22.031Z,1.03
2019-06-07T16:16:13.628Z,1.60
2019-06-07T16:19:05.201Z,1.20
2019-06-07T16:21:56.518Z,1.00
2019-06-07T16:24:48.320Z,1.20
2019-06-07T16:27:40.620Z,1.07
2019-06-07T16:30:32.262Z,1.10
2019-06-07T16:33:23.535Z,1.27
2019-06-07T16:36:15.000Z,1.20
2019-06-07T16:39:08.553Z,1.40
2019-06-07T16:42:00.104Z,1.30
2019-06-07T16:44:51.539Z,1.10
2019-06-07T16:47:45.292Z,1.47
2019-06-07T16:50:36.707Z,0.90
2019-06-07T16:53:28.568Z,1.00
2019-06-07T16:56:19.925Z,1.00
2019-06-07T16:59:11.123Z,1.20
2019-06-07T17:02:02.459Z,0.87
2019-06-07T17:04:54.128Z,0.90
2019-06-07T17:07:46.909Z,1.20
2019-06-07T17:10:40.101Z,1.30
2019-06-07T17:13:33.826Z,1.10
2019-06-07T17:16:24.531Z,1.20
2019-06-07T17:19:15.781Z,1.27
2019-06-07T17:22:07.286Z,1.27
2019-06-07T17:24:58.689Z,1.40
2019-06-07T17:27:50.354Z,1.23
2019-06-07T17:30:41.869Z,1.10
2019-06-07T17:33:34.147Z,1.30
2019-06-07T17:36:25.498Z,1.20
2019-06-07T17:39:17.617Z,1.20
2019-06-07T17:42:08.907Z,1.30
2019-06-07T17:45:00.290Z,1.40
2019-06-07T17:47:52.137Z,1.50
2019-06-07T17:50:44.068Z,1.30
2019-06-07T17:53:35.406Z,1.50
2019-06-07T17:56:26.954Z,1.20
2019-06-07T17:59:18.533Z,1.30
2019-06-07T18:02:14.937Z,1.40
2019-06-07T18:05:03.426Z,1.20
2019-06-07T18:07:56.161Z,1.37
2019-06-07T18:10:49.921Z,1.27
2019-06-07T18:13:41.556Z,1.30
2019-06-07T18:16:33.012Z,1.10
2019-06-07T18:19:24.399Z,1.50
2019-06-07T18:22:15.781Z,1.20
2019-06-07T18:25:09.645Z,1.47
2019-06-07T18:28:01.016Z,1.60
2019-06-07T18:30:52.848Z,1.67
2019-06-07T18:33:44.357Z,1.77
2019-06-07T18:36:35.895Z,1.87
2019-06-07T18:39:27.541Z,1.33
2019-06-07T18:42:18.888Z,1.30
2019-06-07T18:45:10.460Z,1.70
2019-06-07T18:48:01.924Z,1.40
2019-06-07T18:50:54.622Z,1.50
2019-06-07T18:53:47.522Z,1.60
2019-06-07T18:56:40.022Z,1.73
2019-06-07T18:59:31.541Z,1.20
2019-06-07T19:02:23.009Z,1.30
2019-06-07T19:05:16.368Z,1.60
2019-06-07T19:08:08.279Z,1.70
2019-06-07T19:11:00.570Z,1.20
2019-06-07T19:13:53.009Z,1.37
2019-06-07T19:16:45.247Z,1.50
2019-06-07T19:19:38.590Z,1.30
2019-06-07T19:22:30.134Z,1.50
2019-06-07T19:25:21.620Z,1.57
2019-06-07T19:28:13.308Z,1.60
2019-06-07T19:31:04.717Z,1.40
2019-06-07T19:33:57.213Z,1.30
2019-06-07T19:36:49.263Z,1.67
2019-06-07T19:39:40.885Z,1.57
2019-06-07T19:42:33.092Z,1.40
2019-06-07T19:45:30.210Z,1.23
2019-06-07T19:48:18.722Z,1.30
2019-06-07T19:51:10.217Z,1.47
2019-06-07T19:54:03.647Z,1.27
2019-06-07T19:56:55.496Z,1.53
2019-06-07T19:59:48.334Z,1.27
2019-06-07T20:02:39.876Z,1.33
2019-06-07T20:05:33.825Z,1.10
2019-06-07T20:08:24.722Z,1.20
2019-06-07T20:11:16.309Z,1.07
2019-06-07T20:14:07.864Z,1.03
2019-06-07T20:16:59.994Z,1.37
2019-06-07T20:19:52.935Z,1.20
2019-06-07T20:22:44.485Z,0.90
2019-06-07T20:25:36.182Z,0.93
2019-06-07T20:28:28.224Z,1.07
2019-06-07T20:31:19.843Z,1.00
2019-06-07T20:34:11.808Z,0.90
2019-06-07T20:37:05.478Z,1.00
2019-06-07T20:39:57.034Z,1.00
2019-06-07T20:42:49.616Z,0.70
2019-06-07T20:45:41.991Z,0.93
2019-06-07T20:48:33.287Z,1.10
2019-06-07T20:51:24.516Z,1.33
2019-06-07T20:54:16.264Z,0.80
2019-06-07T20:57:08.850Z,1.07
2019-06-07T21:00:10.400Z,1.00
2019-06-07T21:02:55.764Z,1.00
2019-06-07T21:05:47.925Z,1.10
2019-06-07T21:08:39.323Z,1.07
2019-06-07T21:11:30.974Z,1.00
2019-06-07T21:14:22.620Z,1.00
2019-06-07T21:17:14.135Z,1.00
2019-06-07T21:20:08.191Z,1.23
2019-06-07T21:22:58.675Z,0.50
2019-06-07T21:25:49.994Z,0.63
2019-06-07T21:28:41.553Z,0.60
2019-06-07T21:31:33.071Z,0.80
2019-06-07T21:34:24.605Z,0.63
2019-06-07T21:37:16.113Z,0.70
2019-06-07T21:40:08.437Z,0.90
2019-06-07T21:43:00.133Z,0.80
2019-06-07T21:46:04.397Z,0.90
2019-06-07T21:48:44.685Z,1.10
2019-06-07T21:51:35.955Z,1.40
2019-06-07T21:54:27.412Z,1.40
2019-06-07T21:57:18.789Z,1.37
2019-06-07T22:00:15.358Z,1.17
2019-06-07T22:03:09.390Z,0.97
2019-06-07T22:06:01.147Z,0.87
2019-06-07T22:08:53.364Z,1.10
2019-06-07T22:11:45.806Z,1.40
2019-06-07T22:14:37.434Z,1.53
2019-06-07T22:17:28.980Z,1.10
2019-06-07T22:20:20.794Z,1.40
2019-06-07T22:23:12.764Z,1.23
2019-06-07T22:26:04.924Z,1.07
2019-06-07T22:28:56.461Z,1.23
2019-06-07T22:31:47.988Z,1.23
2019-06-07T22:34:39.680Z,1.10
2019-06-07T22:37:31.026Z,1.23
2019-06-07T22:40:24.086Z,1.60
2019-06-07T22:43:15.994Z,1.90
2019-06-07T22:46:08.706Z,1.40
2019-06-07T22:49:00.797Z,2.00
2019-06-07T22:51:59.482Z,1.70
2019-06-07T22:54:45.763Z,1.30
2019-06-07T22:57:58.695Z,1.60
2019-06-07T23:00:50.168Z,1.73
2019-06-07T23:03:41.660Z,2.37
2019-06-07T23:06:33.194Z,1.87
2019-06-07T23:09:24.465Z,1.60
2019-06-07T23:12:17.410Z,1.73
2019-06-07T23:15:09.492Z,1.40
2019-06-07T23:18:00.777Z,1.20
2019-06-07T23:20:52.106Z,1.20
2019-06-07T23:23:43.461Z,1.30
2019-06-07T23:26:34.943Z,1.13
2019-06-07T23:29:26.404Z,0.80
2019-06-07T23:32:20.165Z,0.83
2019-06-07T23:35:11.038Z,0.77
2019-06-07T23:38:03.077Z,0.53
2019-06-07T23:40:54.471Z,0.97
2019-06-07T23:43:46.059Z,0.80
2019-06-07T23:46:37.665Z,0.90
2019-06-07T23:49:28.929Z,0.87
2019-06-07T23:52:22.094Z,1.00
2019-06-07T23:55:15.888Z,1.30
2019-06-07T23:58:08.337Z,1.33
